Time;durP1;ratioP1;P1;durP2;ratioP2;P2;SDS_P1;SDS_P2;PMS_P1;PMS_P2;Temp;Humidity;BMP_temperature;BMP_pressure;BME280_temperature;BME280_humidity;BME280_pressure;Samples;Min_cycle;Max_cycle;Signal;HPM_P1;HPM_P2
2021/03/16 00:01:07;;;;;;;17.02;11.18;;;2.20;99.90;;;;;;5072572;28;20020;-72
2021/03/16 00:03:33;;;;;;;21.60;11.77;;;2.30;99.90;;;;;;5054440;28;20054;-72
2021/03/16 00:05:59;;;;;;;19.45;12.35;;;2.30;99.90;;;;;;5072391;28;20028;-73
2021/03/16 00:08:26;;;;;;;15.82;11.65;;;2.30;99.90;;;;;;5072409;28;20024;-72
2021/03/16 00:10:51;;;;;;;15.57;12.02;;;2.20;99.90;;;;;;5072303;28;20031;-72
2021/03/16 00:13:17;;;;;;;16.92;12.05;;;2.20;99.90;;;;;;5054485;28;20025;-72
2021/03/16 00:15:43;;;;;;;21.20;12.98;;;2.30;99.90;;;;;;5072254;28;20025;-72
2021/03/16 00:18:14;;;;;;;16.20;11.45;;;2.40;99.90;;;;;;5072246;28;20031;-72
2021/03/16 00:20:44;;;;;;;17.13;12.13;;;2.20;99.90;;;;;;5054430;28;20039;-72
2021/03/16 00:23:10;;;;;;;22.02;13.38;;;2.30;99.90;;;;;;5072421;28;20279;-72
2021/03/16 00:25:36;;;;;;;17.65;12.80;;;2.20;99.90;;;;;;5054094;28;20024;-72
2021/03/16 00:28:04;;;;;;;15.80;10.95;;;2.30;99.90;;;;;;5071839;28;20567;-72
2021/03/16 00:30:29;;;;;;;20.45;11.95;;;2.50;99.90;;;;;;5072201;28;20052;-72
2021/03/16 00:32:55;;;;;;;15.88;12.18;;;2.40;99.90;;;;;;5054197;28;20064;-72
2021/03/16 00:35:21;;;;;;;16.88;11.85;;;2.50;99.90;;;;;;5072034;28;20031;-72
2021/03/16 00:37:47;;;;;;;18.85;13.27;;;2.50;99.90;;;;;;5071957;28;20024;-72
2021/03/16 00:40:13;;;;;;;21.40;13.85;;;2.40;99.90;;;;;;5072132;28;20024;-72
2021/03/16 00:42:39;;;;;;;21.35;14.25;;;2.40;99.90;;;;;;5071854;28;20029;-72
2021/03/16 00:45:10;;;;;;;20.13;13.35;;;2.40;99.90;;;;;;5054051;28;20024;-72
2021/03/16 00:47:36;;;;;;;26.33;15.35;;;2.50;99.90;;;;;;5072164;28;20028;-72
2021/03/16 00:50:07;;;;;;;24.05;13.75;;;2.50;99.90;;;;;;5053655;28;20541;-72
2021/03/16 00:52:33;;;;;;;21.73;15.50;;;2.50;99.90;;;;;;5071965;28;20543;-72
2021/03/16 00:54:59;;;;;;;21.58;14.82;;;2.30;99.90;;;;;;5071709;28;20071;-72
2021/03/16 00:57:25;;;;;;;26.67;14.95;;;2.40;99.90;;;;;;5071759;28;20060;-73
2021/03/16 00:59:50;;;;;;;20.80;14.85;;;2.40;99.90;;;;;;5071808;28;20476;-72
2021/03/16 01:02:18;;;;;;;22.38;14.50;;;2.30;99.90;;;;;;5071792;28;20085;-73
2021/03/16 01:04:47;;;;;;;17.90;13.95;;;2.30;99.90;;;;;;5071670;28;20074;-73
2021/03/16 01:07:13;;;;;;;21.90;14.77;;;2.30;99.90;;;;;;5071727;28;20029;-72
2021/03/16 01:09:39;;;;;;;24.42;15.95;;;2.20;99.90;;;;;;5071430;28;20036;-72
2021/03/16 01:12:06;;;;;;;25.35;15.23;;;2.30;99.90;;;;;;5071872;28;20483;-72
2021/03/16 01:14:32;;;;;;;19.17;12.73;;;2.30;99.90;;;;;;5071568;28;20032;-72
2021/03/16 01:16:58;;;;;;;23.20;13.45;;;2.40;99.90;;;;;;5071676;28;20054;-72
2021/03/16 01:19:24;;;;;;;19.85;13.73;;;2.40;99.90;;;;;;5071625;28;20030;-72
2021/03/16 01:21:50;;;;;;;23.73;15.82;;;2.30;99.90;;;;;;5053624;28;20025;-72
2021/03/16 01:24:15;;;;;;;23.30;15.10;;;2.40;99.90;;;;;;5053529;28;20036;-73
2021/03/16 01:26:41;;;;;;;20.92;13.55;;;2.40;99.90;;;;;;5071769;28;20032;-72
2021/03/16 01:29:07;;;;;;;21.95;13.80;;;2.40;99.90;;;;;;5071489;28;20096;-72
2021/03/16 01:31:33;;;;;;;26.42;13.98;;;2.40;99.90;;;;;;5071596;28;20096;-73
2021/03/16 01:33:59;;;;;;;22.33;13.32;;;2.30;99.90;;;;;;5071488;28;20089;-73
2021/03/16 01:36:24;;;;;;;21.70;13.43;;;2.30;99.90;;;;;;5071358;28;20033;-72
2021/03/16 01:38:50;;;;;;;19.90;13.48;;;2.40;99.90;;;;;;5071739;28;20032;-72
2021/03/16 01:41:16;;;;;;;18.63;13.30;;;2.40;99.90;;;;;;5071416;28;20034;-73
2021/03/16 01:43:42;;;;;;;25.15;14.07;;;2.50;99.90;;;;;;5036910;28;20021;-73
2021/03/16 01:46:08;;;;;;;25.67;14.50;;;2.60;99.90;;;;;;5071278;28;20380;-72
2021/03/16 01:48:36;;;;;;;24.05;13.65;;;2.40;99.90;;;;;;5071346;28;20017;-72
2021/03/16 01:51:06;;;;;;;28.20;14.65;;;2.50;99.90;;;;;;5053508;28;20025;-73
2021/03/16 01:53:33;;;;;;;22.98;14.32;;;2.50;99.90;;;;;;5071310;28;20067;-73
2021/03/16 01:56:01;;;;;;;31.67;13.60;;;2.60;99.90;;;;;;5071191;28;20444;-72
2021/03/16 01:58:27;;;;;;;25.35;15.00;;;2.60;99.90;;;;;;5071254;28;20498;-72
2021/03/16 02:00:53;;;;;;;22.02;13.20;;;2.60;99.90;;;;;;5053380;28;20107;-73
2021/03/16 02:03:19;;;;;;;23.05;13.88;;;2.50;99.90;;;;;;5055378;28;20392;-72
2021/03/16 02:05:45;;;;;;;24.70;14.25;;;2.60;99.90;;;;;;5074706;28;20024;-73
2021/03/16 02:08:17;;;;;;;24.30;13.90;;;2.70;99.90;;;;;;5074660;28;20023;-72
2021/03/16 02:10:55;;;;;;;26.75;14.10;;;2.70;99.90;;;;;;5053759;22;20184;-75
2021/03/16 02:13:28;;;;;;;31.40;14.35;;;2.60;99.90;;;;;;4989722;28;20027;-75
2021/03/16 02:16:00;;;;;;;23.73;14.13;;;2.60;99.90;;;;;;4990879;28;20026;-75
2021/03/16 02:18:29;;;;;;;27.25;15.23;;;2.60;99.90;;;;;;4990873;28;20064;-75
2021/03/16 02:21:04;;;;;;;23.88;14.30;;;2.60;99.90;;;;;;4990627;28;20159;-75
2021/03/16 02:24:00;;;;;;;27.52;14.90;;;2.50;99.90;;;;;;4989519;28;20022;-75
2021/03/16 02:26:46;;;;;;;21.38;14.35;;;2.40;99.90;;;;;;4991049;28;20027;-74
2021/03/16 02:29:18;;;;;;;33.63;15.10;;;2.40;99.90;;;;;;4991964;28;20023;-75
2021/03/16 02:31:50;;;;;;;23.95;14.43;;;2.40;99.90;;;;;;4990778;28;20029;-75
2021/03/16 02:34:16;;;;;;;;;;;2.40;99.90;;;;;;4992322;28;20461;-75
2021/03/16 02:36:44;;;;;;;32.63;15.73;;;2.30;99.90;;;;;;4991942;28;19913;-75
2021/03/16 02:39:11;;;;;;;25.98;13.75;;;2.30;99.90;;;;;;4991776;28;20508;-75
2021/03/16 02:41:40;;;;;;;26.17;15.73;;;2.20;99.90;;;;;;4991818;28;20034;-75
2021/03/16 02:44:06;;;;;;;25.08;15.73;;;2.20;99.90;;;;;;4990490;28;20405;-75
2021/03/16 02:46:33;;;;;;;32.72;14.20;;;2.30;99.90;;;;;;4991680;28;20051;-75
2021/03/16 02:48:59;;;;;;;33.22;16.90;;;2.30;99.90;;;;;;4991506;28;20473;-74
2021/03/16 02:51:25;;;;;;;23.25;14.55;;;2.30;99.90;;;;;;4991676;28;20545;-75
2021/03/16 02:53:53;;;;;;;34.90;15.38;;;2.20;99.90;;;;;;4990384;28;20466;-75
2021/03/16 02:56:21;;;;;;;28.58;15.55;;;2.30;99.90;;;;;;4991543;28;20023;-75
2021/03/16 02:58:49;;;;;;;24.42;14.52;;;2.30;99.90;;;;;;4991509;28;20026;-75
2021/03/16 03:01:16;;;;;;;31.52;15.70;;;2.40;99.90;;;;;;4990284;28;20026;-75
2021/03/16 03:03:45;;;;;;;28.92;14.70;;;2.40;99.90;;;;;;4990127;28;20052;-75
2021/03/16 03:06:16;;;;;;;25.80;15.23;;;2.40;99.90;;;;;;4991328;28;20033;-75
2021/03/16 03:08:45;;;;;;;22.05;14.30;;;2.50;99.90;;;;;;4991557;28;20533;-75
2021/03/16 03:11:11;;;;;;;23.48;13.70;;;2.50;99.90;;;;;;4990156;28;20492;-75
2021/03/16 03:13:38;;;;;;;30.33;14.90;;;2.50;99.90;;;;;;4991156;28;20053;-75
2021/03/16 03:16:05;;;;;;;28.60;14.75;;;2.50;99.90;;;;;;4990024;28;20027;-75
2021/03/16 03:18:31;;;;;;;22.10;13.95;;;2.50;99.90;;;;;;4991202;28;20113;-75
2021/03/16 03:21:04;;;;;;;27.83;14.07;;;2.40;99.90;;;;;;4991166;28;20027;-75
2021/03/16 03:23:34;;;;;;;24.92;14.32;;;2.40;99.90;;;;;;4991130;28;20382;-75
2021/03/16 03:26:13;;;;;;;28.38;14.88;;;2.30;99.90;;;;;;4990623;28;20026;-75
2021/03/16 03:28:40;;;;;;;27.27;14.52;;;2.40;99.90;;;;;;4990009;28;20027;-75
2021/03/16 03:31:07;;;;;;;37.88;15.05;;;2.50;99.90;;;;;;4989860;28;20486;-75
2021/03/16 03:33:35;;;;;;;28.95;16.13;;;2.60;99.90;;;;;;4990986;28;20037;-75
2021/03/16 03:36:03;;;;;;;25.05;14.38;;;2.50;99.90;;;;;;4990763;28;20027;-75
2021/03/16 03:38:30;;;;;;;27.77;14.07;;;2.60;99.90;;;;;;4990780;28;20473;-75
2021/03/16 03:40:58;;;;;;;20.50;13.23;;;2.70;99.90;;;;;;4989731;28;20506;-75
2021/03/16 03:43:24;;;;;;;23.67;13.63;;;2.80;99.90;;;;;;4989652;28;20034;-75
2021/03/16 03:45:52;;;;;;;28.52;14.52;;;2.80;99.90;;;;;;4990712;28;20367;-75
2021/03/16 03:48:20;;;;;;;32.03;15.05;;;2.70;99.90;;;;;;4989641;28;20398;-75
2021/03/16 03:50:50;;;;;;;26.52;15.20;;;2.80;99.90;;;;;;4989570;28;20486;-75
2021/03/16 03:53:17;;;;;;;31.52;14.60;;;2.70;99.90;;;;;;4990691;28;20034;-74
2021/03/16 03:55:44;;;;;;;24.23;14.80;;;2.80;99.90;;;;;;4989490;28;20264;-74
2021/03/16 03:58:11;;;;;;;24.27;15.18;;;2.70;99.90;;;;;;4989362;28;20034;-74
2021/03/16 04:00:37;;;;;;;27.70;13.70;;;2.70;99.90;;;;;;4990647;28;20022;-74
2021/03/16 04:03:04;;;;;;;31.60;13.95;;;2.70;99.90;;;;;;4990563;28;20062;-74
2021/03/16 04:05:30;;;;;;;22.50;14.05;;;2.70;99.90;;;;;;4990336;28;20027;-74
2021/03/16 04:07:57;;;;;;;28.05;13.93;;;2.70;99.90;;;;;;4990443;28;20084;-74
2021/03/16 04:10:23;;;;;;;25.63;14.05;;;2.70;99.90;;;;;;4990467;28;20030;-74
2021/03/16 04:12:50;;;;;;;26.98;14.13;;;2.70;99.90;;;;;;4990643;28;20049;-74
2021/03/16 04:15:16;;;;;;;33.78;14.13;;;2.70;99.90;;;;;;4990372;28;20113;-74
2021/03/16 04:17:44;;;;;;;23.10;13.40;;;2.70;99.90;;;;;;4989078;28;20435;-74
2021/03/16 04:20:11;;;;;;;30.08;14.23;;;2.70;99.90;;;;;;4990283;28;20027;-74
2021/03/16 04:22:38;;;;;;;27.50;15.15;;;2.70;99.90;;;;;;4990420;28;20437;-74
2021/03/16 04:25:05;;;;;;;24.02;15.05;;;2.70;99.90;;;;;;4989533;28;20029;-74
2021/03/16 04:27:31;;;;;;;27.35;13.57;;;2.70;99.90;;;;;;4990063;28;20022;-74
2021/03/16 04:29:57;;;;;;;34.30;15.80;;;2.80;99.90;;;;;;4990278;28;20144;-74
2021/03/16 04:32:23;;;;;;;29.58;14.25;;;2.80;99.90;;;;;;4988858;28;20030;-74
2021/03/16 04:34:49;;;;;;;24.42;13.85;;;2.80;99.90;;;;;;4990447;28;20068;-74
2021/03/16 04:37:15;;;;;;;18.40;12.57;;;2.70;99.90;;;;;;4990368;28;20374;-74
2021/03/16 04:39:40;;;;;;;34.08;13.98;;;2.50;99.90;;;;;;4990040;28;20027;-74
2021/03/16 04:42:07;;;;;;;22.30;13.20;;;2.30;99.90;;;;;;4972551;28;20037;-74
2021/03/16 04:44:33;;;;;;;27.90;13.57;;;2.00;99.90;;;;;;4989768;28;20113;-74
2021/03/16 04:46:58;;;;;;;29.00;14.52;;;1.90;99.90;;;;;;4989868;28;20026;-74
2021/03/16 04:49:24;;;;;;;22.77;13.00;;;1.90;99.90;;;;;;4989869;28;20029;-74
2021/03/16 04:51:50;;;;;;;24.70;13.68;;;2.00;99.90;;;;;;4988751;28;20026;-74
2021/03/16 04:54:16;;;;;;;30.23;15.65;;;2.10;99.90;;;;;;4989902;28;20105;-74
2021/03/16 04:56:42;;;;;;;22.02;12.00;;;2.20;99.90;;;;;;4989782;28;20087;-74
2021/03/16 04:59:07;;;;;;;32.00;13.15;;;2.10;99.90;;;;;;4989684;28;20019;-74
2021/03/16 05:01:33;;;;;;;29.08;13.68;;;2.20;99.90;;;;;;4989731;28;20034;-74
2021/03/16 05:03:59;;;;;;;29.45;14.20;;;2.20;99.90;;;;;;4988408;28;20064;-74
2021/03/16 05:06:25;;;;;;;25.20;13.68;;;2.20;99.90;;;;;;4989655;28;20054;-74
2021/03/16 05:08:50;;;;;;;32.58;16.17;;;2.20;99.90;;;;;;4989643;28;20026;-74
2021/03/16 05:11:16;;;;;;;38.30;15.57;;;2.10;99.90;;;;;;4988192;28;20034;-74
2021/03/16 05:13:43;;;;;;;33.58;13.02;;;2.10;99.90;;;;;;4988325;28;20033;-74
2021/03/16 05:16:09;;;;;;;28.02;13.77;;;2.20;99.90;;;;;;4989437;28;20026;-74
2021/03/16 05:18:36;;;;;;;26.50;13.35;;;2.20;99.90;;;;;;4989456;28;20078;-74
2021/03/16 05:21:03;;;;;;;34.35;13.13;;;2.20;99.90;;;;;;4989544;28;20035;-74
2021/03/16 05:23:28;;;;;;;29.33;12.95;;;2.40;99.90;;;;;;4989791;28;20497;-74
2021/03/16 05:25:54;;;;;;;28.30;12.88;;;2.40;99.90;;;;;;4989391;28;20046;-74
2021/03/16 05:28:20;;;;;;;26.20;11.85;;;2.40;99.90;;;;;;4989334;28;20377;-74
2021/03/16 05:30:46;;;;;;;26.35;10.93;;;2.40;99.90;;;;;;4971996;28;20034;-74
2021/03/16 05:33:11;;;;;;;24.48;11.68;;;2.30;99.90;;;;;;4989424;28;20038;-74
2021/03/16 05:35:38;;;;;;;23.33;11.20;;;2.20;99.90;;;;;;4989630;28;20363;-74
2021/03/16 05:38:04;;;;;;;23.55;12.30;;;2.20;99.90;;;;;;4990837;28;20022;-74
2021/03/16 05:40:32;;;;;;;34.35;13.25;;;2.20;99.90;;;;;;4992630;28;20030;-74
2021/03/16 05:42:58;;;;;;;30.60;11.15;;;2.10;99.90;;;;;;4992586;28;20790;-74
2021/03/16 05:45:25;;;;;;;28.33;12.00;;;2.20;99.90;;;;;;4992533;28;20174;-74
2021/03/16 05:47:52;;;;;;;27.00;12.00;;;2.20;99.90;;;;;;4992519;28;20026;-74
2021/03/16 05:50:19;;;;;;;32.50;13.80;;;2.20;99.90;;;;;;4992575;28;20385;-74
2021/03/16 05:52:46;;;;;;;20.73;11.38;;;2.30;99.90;;;;;;4992972;28;20474;-74
2021/03/16 05:55:12;;;;;;;33.20;12.23;;;2.40;99.90;;;;;;4992390;28;20371;-74
2021/03/16 05:57:39;;;;;;;28.95;12.57;;;2.30;99.90;;;;;;4992436;28;20031;-74
2021/03/16 06:00:06;;;;;;;22.75;10.95;;;2.50;99.90;;;;;;4992428;28;20030;-74
2021/03/16 06:02:36;;;;;;;25.50;10.82;;;2.40;99.90;;;;;;4989371;28;20030;-74
2021/03/16 06:05:02;;;;;;;33.20;14.63;;;2.40;99.90;;;;;;5009009;28;20023;-74
2021/03/16 06:07:28;;;;;;;31.33;13.65;;;2.30;99.90;;;;;;5047177;28;20018;-74
2021/03/16 06:09:53;;;;;;;19.67;10.13;;;2.20;99.90;;;;;;4989824;28;20088;-74
2021/03/16 06:12:31;;;;;;;18.00;9.40;;;2.30;99.90;;;;;;4990735;28;20025;-75
2021/03/16 06:14:57;;;;;;;26.05;9.20;;;2.30;99.90;;;;;;4990261;28;20034;-74
2021/03/16 06:17:23;;;;;;;16.15;9.30;;;2.40;99.90;;;;;;4990423;28;20038;-74
2021/03/16 06:19:49;;;;;;;21.52;10.60;;;2.40;99.90;;;;;;4990134;28;20030;-75
2021/03/16 06:22:18;;;;;;;30.27;10.48;;;2.40;99.90;;;;;;4972829;28;20121;-74
2021/03/16 06:24:45;;;;;;;18.15;9.18;;;2.50;99.90;;;;;;4989514;28;20026;-75
2021/03/16 06:27:25;;;;;;;19.30;9.20;;;2.50;99.90;;;;;;4989370;28;20027;-75
2021/03/16 06:29:51;;;;;;;21.30;10.35;;;2.50;99.90;;;;;;4986328;28;20075;-75
2021/03/16 06:32:17;;;;;;;23.00;10.05;;;2.40;99.90;;;;;;4989827;28;20022;-75
2021/03/16 06:34:43;;;;;;;18.10;10.10;;;2.40;99.90;;;;;;4990220;28;20030;-75
2021/03/16 06:37:10;;;;;;;20.20;9.55;;;2.40;99.90;;;;;;4990148;28;20027;-75
2021/03/16 06:39:43;;;;;;;20.58;9.43;;;2.40;99.90;;;;;;4990486;28;20489;-74
2021/03/16 06:42:23;;;;;;;26.98;11.77;;;2.40;99.90;;;;;;4985723;28;20023;-74
2021/03/16 06:45:06;;;;;;;26.50;10.65;;;2.50;99.90;;;;;;4988799;28;20026;-74
2021/03/16 06:47:41;;;;;;;27.05;12.23;;;2.60;99.90;;;;;;4989654;28;20097;-74
2021/03/16 06:50:09;;;;;;;32.78;11.35;;;2.50;99.90;;;;;;4990000;28;20033;-74
2021/03/16 06:52:35;;;;;;;30.15;12.60;;;2.60;99.90;;;;;;4989491;28;20026;-75
2021/03/16 06:55:14;;;;;;;25.65;10.65;;;2.70;99.90;;;;;;4989513;28;20505;-75
2021/03/16 06:57:39;;;;;;;27.33;11.35;;;2.70;99.90;;;;;;4972608;28;20050;-74
2021/03/16 07:00:13;;;;;;;31.45;12.73;;;2.80;99.90;;;;;;4989869;28;20701;-74
2021/03/16 07:02:39;;;;;;;25.83;11.00;;;2.80;99.90;;;;;;4990326;28;20030;-75
2021/03/16 07:05:05;;;;;;;22.92;9.60;;;2.70;99.90;;;;;;4990005;28;20265;-74
2021/03/16 07:07:33;;;;;;;24.70;8.80;;;2.70;99.90;;;;;;4989106;28;20037;-74
2021/03/16 07:10:05;;;;;;;22.75;10.10;;;2.80;99.90;;;;;;4989895;28;20113;-74
2021/03/16 07:12:34;;;;;;;19.23;10.35;;;2.70;99.90;;;;;;4990401;28;20030;-74
2021/03/16 07:15:01;;;;;;;27.02;9.95;;;2.80;99.90;;;;;;4988810;28;20023;-74
2021/03/16 07:17:30;;;;;;;25.98;10.88;;;2.70;99.90;;;;;;4989824;28;20050;-74
2021/03/16 07:20:07;;;;;;;27.17;10.45;;;2.70;99.90;;;;;;4990254;28;20121;-74
2021/03/16 07:22:37;;;;;;;34.70;10.40;;;2.80;99.90;;;;;;4985267;28;20018;-74
2021/03/16 07:25:09;;;;;;;16.60;9.13;;;2.80;99.90;;;;;;4989258;28;20022;-76
2021/03/16 07:27:36;;;;;;;17.08;7.95;;;2.60;99.90;;;;;;4989423;28;20156;-76
2021/03/16 07:30:03;;;;;;;25.95;9.00;;;2.40;99.90;;;;;;4989926;28;20026;-73
2021/03/16 07:32:29;;;;;;;15.10;8.77;;;2.40;99.90;;;;;;4989281;28;20481;-74
2021/03/16 07:35:00;;;;;;;21.42;10.30;;;2.50;99.90;;;;;;4990081;28;20027;-74
2021/03/16 07:37:27;;;;;;;13.50;7.80;;;2.60;99.90;;;;;;4989995;28;20022;-74
2021/03/16 07:39:54;;;;;;;16.95;7.43;;;2.40;99.90;;;;;;4988661;28;20022;-74
2021/03/16 07:42:20;;;;;;;15.63;7.18;;;2.40;99.90;;;;;;4989345;28;20053;-74
2021/03/16 07:44:46;;;;;;;24.00;8.30;;;2.20;99.90;;;;;;5013653;28;20059;-74
2021/03/16 07:47:12;;;;;;;10.45;5.90;;;2.10;99.90;;;;;;4989328;28;20034;-74
2021/03/16 07:49:39;;;;;;;18.98;6.88;;;2.20;99.90;;;;;;4993965;28;20635;-74
2021/03/16 07:52:20;;;;;;;12.13;6.65;;;2.30;99.90;;;;;;4992941;28;20025;-74
2021/03/16 07:54:52;;;;;;;13.50;5.90;;;2.40;99.90;;;;;;4986847;28;20630;-74
2021/03/16 07:57:31;;;;;;;22.05;7.13;;;2.30;99.90;;;;;;4988687;28;20073;-74
2021/03/16 08:00:03;;;;;;;14.25;6.60;;;2.40;99.90;;;;;;4988760;28;20061;-74
2021/03/16 08:02:31;;;;;;;10.68;5.85;;;2.40;99.90;;;;;;4987529;28;20018;-74
2021/03/16 08:04:57;;;;;;;11.85;5.95;;;2.30;99.90;;;;;;4988925;28;20015;-74
2021/03/16 08:07:26;;;;;;;15.27;6.38;;;2.40;99.90;;;;;;4987105;28;20029;-75
2021/03/16 08:09:57;;;;;;;17.30;7.75;;;2.50;99.90;;;;;;4989302;28;20385;-74
2021/03/16 08:12:24;;;;;;;11.93;6.45;;;2.40;99.90;;;;;;4987880;28;20488;-74
2021/03/16 08:14:50;;;;;;;16.13;6.20;;;2.50;99.90;;;;;;4989219;28;20068;-74
2021/03/16 08:17:30;;;;;;;36.50;7.57;;;2.50;99.90;;;;;;4988673;28;20049;-74
2021/03/16 08:19:56;;;;;;;12.05;6.78;;;2.40;99.90;;;;;;4986706;28;20118;-74
2021/03/16 08:22:24;;;;;;;14.25;7.43;;;2.60;99.90;;;;;;4988481;28;20019;-75
2021/03/16 08:25:01;;;;;;;16.30;7.30;;;2.60;99.90;;;;;;4987946;28;20069;-74
2021/03/16 08:27:28;;;;;;;17.88;7.82;;;2.90;99.90;;;;;;4988799;28;20019;-75
2021/03/16 08:29:54;;;;;;;24.02;7.75;;;2.80;99.90;;;;;;4986909;28;20116;-75
2021/03/16 08:32:22;;;;;;;17.85;9.15;;;2.70;99.90;;;;;;4987157;28;20172;-74
2021/03/16 08:34:49;;;;;;;16.85;8.13;;;2.60;99.90;;;;;;4988066;28;20018;-74
2021/03/16 08:37:32;;;;;;;15.25;8.27;;;2.70;99.90;;;;;;4989028;28;20069;-74
2021/03/16 08:40:00;;;;;;;17.33;6.95;;;2.60;99.90;;;;;;4987588;28;20387;-74
2021/03/16 08:42:28;;;;;;;15.50;7.80;;;2.40;99.90;;;;;;4986927;28;20456;-74
2021/03/16 08:44:55;;;;;;;22.48;8.18;;;2.40;99.90;;;;;;4986895;28;20054;-74
2021/03/16 08:47:24;;;;;;;10.60;6.95;;;2.20;99.90;;;;;;4986911;28;20030;-75
2021/03/16 08:49:52;;;;;;;18.02;7.43;;;2.20;99.90;;;;;;4987384;28;20444;-74
2021/03/16 08:52:18;;;;;;;20.52;7.57;;;2.40;99.90;;;;;;4986521;28;20430;-74
2021/03/16 08:54:44;;;;;;;13.43;7.32;;;2.50;99.90;;;;;;4986959;28;20084;-74
2021/03/16 08:57:10;;;;;;;27.42;8.27;;;2.50;99.90;;;;;;4970306;28;20030;-74
2021/03/16 08:59:37;;;;;;;25.98;7.65;;;2.60;99.90;;;;;;4987080;28;20561;-74
2021/03/16 09:02:03;;;;;;;16.23;7.28;;;2.80;99.90;;;;;;4988217;28;20497;-74
2021/03/16 09:04:29;;;;;;;45.42;9.65;;;2.90;99.90;;;;;;4987697;28;20033;-75
2021/03/16 09:06:54;;;;;;;20.55;7.78;;;3.00;99.90;;;;;;4986771;28;20029;-75
2021/03/16 09:09:26;;;;;;;13.18;7.25;;;3.00;99.90;;;;;;4987916;28;20492;-75
2021/03/16 09:11:53;;;;;;;13.70;5.93;;;3.20;99.90;;;;;;4989169;28;20437;-75
2021/03/16 09:14:20;;;;;;;15.85;8.20;;;3.40;99.90;;;;;;4990236;28;20026;-75
2021/03/16 09:16:54;;;;;;;17.92;7.20;;;3.50;99.90;;;;;;4991431;28;20397;-75
2021/03/16 09:19:26;;;;;;;22.20;7.72;;;3.30;99.90;;;;;;4988067;28;20027;-75
2021/03/16 09:21:55;;;;;;;26.42;8.70;;;3.40;99.90;;;;;;4989546;28;20030;-75
2021/03/16 09:24:26;;;;;;;20.38;8.15;;;3.40;99.90;;;;;;4973921;28;20031;-75
2021/03/16 09:27:05;;;;;;;14.43;7.20;;;3.30;99.90;;;;;;4994071;28;20018;-75
2021/03/16 09:29:34;;;;;;;23.83;7.93;;;3.40;99.90;;;;;;4990094;28;20039;-75
2021/03/16 09:32:02;;;;;;;15.73;8.45;;;3.40;99.90;;;;;;4989349;28;20029;-75
2021/03/16 09:34:28;;;;;;;23.52;8.50;;;3.60;99.90;;;;;;4990253;28;20026;-75
2021/03/16 09:37:05;;;;;;;30.95;9.98;;;3.70;99.90;;;;;;4989807;28;20066;-75
2021/03/16 09:39:31;;;;;;;17.50;7.60;;;3.80;99.90;;;;;;4991473;28;20041;-75
2021/03/16 09:42:02;;;;;;;23.98;8.52;;;3.60;99.90;;;;;;4990885;28;20032;-75
2021/03/16 09:44:35;;;;;;;27.05;8.48;;;3.40;99.90;;;;;;4989377;28;20033;-75
2021/03/16 09:47:03;;;;;;;11.55;7.15;;;3.50;99.90;;;;;;4990914;28;20166;-75
2021/03/16 09:49:47;;;;;;;24.20;6.95;;;3.50;99.90;;;;;;4989148;28;20393;-75
2021/03/16 09:52:13;;;;;;;15.65;7.43;;;3.60;99.90;;;;;;4991000;28;20061;-76
2021/03/16 09:54:43;;;;;;;19.38;6.68;;;3.70;99.90;;;;;;4990625;28;20414;-75
2021/03/16 09:57:10;;;;;;;22.50;7.47;;;3.70;99.90;;;;;;4989400;28;20026;-75
2021/03/16 09:59:44;;;;;;;20.13;6.15;;;3.60;99.90;;;;;;4990530;28;20035;-75
2021/03/16 10:02:11;;;;;;;17.30;6.45;;;3.50;99.90;;;;;;4990692;28;20026;-75
2021/03/16 10:04:44;;;;;;;32.10;9.18;;;3.60;99.90;;;;;;4989271;28;20034;-75
2021/03/16 10:07:10;;;;;;;17.73;6.60;;;3.90;99.90;;;;;;4991351;28;20030;-75
2021/03/16 10:09:40;;;;;;;16.88;6.85;;;3.90;99.90;;;;;;4989582;28;20030;-75
2021/03/16 10:12:20;;;;;;;17.55;6.10;;;3.90;99.90;;;;;;4989894;28;20041;-75
2021/03/16 10:14:50;;;;;;;10.43;5.90;;;4.10;99.90;;;;;;4990670;28;20037;-75
2021/03/16 10:17:27;;;;;;;11.38;5.57;;;4.10;99.90;;;;;;4990456;28;20122;-75
2021/03/16 10:19:58;;;;;;;24.67;5.78;;;4.20;99.90;;;;;;4990574;28;20033;-75
2021/03/16 10:22:35;;;;;;;17.55;5.97;;;4.10;99.90;;;;;;4988435;28;20079;-75
2021/03/16 10:25:10;;;;;;;17.35;8.05;;;4.30;99.90;;;;;;4990231;28;20034;-75
2021/03/16 10:27:36;;;;;;;16.60;5.70;;;4.20;99.90;;;;;;4986009;28;20111;-75
2021/03/16 10:30:08;;;;;;;13.48;5.30;;;4.50;99.90;;;;;;4990102;28;20398;-75
2021/03/16 10:32:34;;;;;;;16.05;5.50;;;4.60;99.90;;;;;;4990249;28;20033;-75
2021/03/16 10:35:00;;;;;;;9.32;6.43;;;4.70;99.90;;;;;;4989978;28;20037;-75
2021/03/16 10:37:26;;;;;;;11.68;4.65;;;4.60;99.90;;;;;;4990442;28;20066;-77
2021/03/16 10:39:55;;;;;;;12.15;4.03;;;5.30;99.90;;;;;;4989194;28;20033;-75
2021/03/16 10:42:21;;;;;;;12.20;4.43;;;5.90;99.90;;;;;;4990312;28;20022;-75
2021/03/16 10:44:47;;;;;;;7.25;3.47;;;6.10;98.60;;;;;;4988482;28;20114;-75
2021/03/16 10:47:13;;;;;;;14.93;4.43;;;6.20;98.80;;;;;;4990774;28;20210;-75
2021/03/16 10:49:39;;;;;;;18.50;5.60;;;6.00;97.60;;;;;;4990363;28;20023;-75
2021/03/16 10:52:05;;;;;;;14.38;6.47;;;5.60;99.90;;;;;;4989604;28;20022;-75
2021/03/16 10:54:33;;;;;;;17.30;6.88;;;5.50;99.90;;;;;;4990376;28;20118;-75
2021/03/16 10:56:59;;;;;;;18.05;6.15;;;5.40;99.90;;;;;;4989441;28;20018;-75
2021/03/16 10:59:25;;;;;;;13.07;5.65;;;5.30;99.90;;;;;;4990100;28;20382;-75
2021/03/16 11:01:51;;;;;;;11.30;4.63;;;5.40;99.90;;;;;;4988498;28;20026;-75
2021/03/16 11:04:18;;;;;;;11.75;5.63;;;5.20;99.90;;;;;;4988765;28;20027;-75
2021/03/16 11:06:45;;;;;;;20.65;5.45;;;5.00;99.90;;;;;;4988380;28;20027;-75
2021/03/16 11:09:15;;;;;;;17.85;6.10;;;5.20;99.90;;;;;;4988959;28;20029;-75
2021/03/16 11:11:41;;;;;;;18.70;4.95;;;5.30;99.90;;;;;;4989522;28;20524;-75
2021/03/16 11:14:08;;;;;;;14.23;4.72;;;5.20;99.90;;;;;;4989455;28;20437;-75
2021/03/16 11:16:33;;;;;;;14.05;4.53;;;5.20;99.90;;;;;;4988592;28;20026;-75
2021/03/16 11:19:00;;;;;;;9.27;2.80;;;4.90;99.90;;;;;;4989595;28;20030;-75
2021/03/16 11:21:26;;;;;;;7.20;2.85;;;4.50;99.90;;;;;;4989624;28;20041;-75
2021/03/16 11:23:52;;;;;;;9.05;3.10;;;3.90;99.90;;;;;;4988108;28;20031;-75
2021/03/16 11:26:18;;;;;;;9.70;3.90;;;3.70;99.90;;;;;;4989544;28;20033;-75
2021/03/16 11:28:44;;;;;;;7.25;3.80;;;3.70;99.90;;;;;;4989285;28;20034;-75
2021/03/16 11:31:10;;;;;;;20.33;3.40;;;3.70;99.90;;;;;;5004880;28;20019;-75
2021/03/16 11:33:36;;;;;;;15.52;3.78;;;3.60;99.90;;;;;;4989353;28;20068;-75
2021/03/16 11:36:02;;;;;;;13.18;3.72;;;3.60;99.90;;;;;;4989317;28;20057;-75
2021/03/16 11:38:28;;;;;;;15.23;4.07;;;3.70;99.90;;;;;;4989590;28;20431;-75
2021/03/16 11:40:54;;;;;;;15.70;5.13;;;4.00;99.90;;;;;;4988779;28;20038;-75
2021/03/16 11:43:20;;;;;;;12.73;4.38;;;4.10;99.90;;;;;;4989610;28;20477;-75
2021/03/16 11:45:46;;;;;;;12.43;4.13;;;4.30;99.90;;;;;;4988375;28;20174;-76
2021/03/16 11:48:12;;;;;;;9.98;4.57;;;4.60;99.90;;;;;;5002109;28;20101;-75
2021/03/16 11:50:38;;;;;;;9.32;3.80;;;5.20;99.90;;;;;;4989303;28;20033;-75
2021/03/16 11:53:04;;;;;;;21.67;5.93;;;5.60;99.90;;;;;;4988810;28;20494;-75
2021/03/16 11:55:31;;;;;;;9.77;4.75;;;5.90;99.90;;;;;;4989564;28;20105;-75
2021/03/16 11:57:56;;;;;;;16.92;4.97;;;6.10;99.90;;;;;;4988990;28;20034;-75
2021/03/16 12:00:22;;;;;;;11.68;5.13;;;6.00;99.90;;;;;;4988965;28;20030;-76
2021/03/16 12:02:48;;;;;;;14.52;5.40;;;5.80;99.90;;;;;;4992912;28;20087;-75
2021/03/16 12:05:14;;;;;;;10.70;4.50;;;5.50;99.90;;;;;;4987600;28;20117;-75
2021/03/16 12:07:41;;;;;;;16.33;5.00;;;5.20;99.90;;;;;;4989013;28;20031;-75
2021/03/16 12:10:09;;;;;;;18.45;5.65;;;4.90;99.90;;;;;;4987258;28;20035;-76
2021/03/16 12:12:35;;;;;;;11.40;4.70;;;4.90;99.90;;;;;;4989174;28;20098;-76
2021/03/16 12:15:01;;;;;;;10.70;4.72;;;4.90;99.90;;;;;;4988925;28;20038;-75
2021/03/16 12:17:27;;;;;;;10.23;4.57;;;5.10;99.90;;;;;;4987775;28;20425;-75
2021/03/16 12:19:53;;;;;;;9.82;4.15;;;5.20;99.90;;;;;;4989336;28;20111;-75
2021/03/16 12:22:18;;;;;;;9.90;4.95;;;5.40;99.90;;;;;;4988237;28;20081;-75
2021/03/16 12:24:45;;;;;;;8.95;4.72;;;5.60;99.90;;;;;;4987432;28;20076;-75
2021/03/16 12:27:11;;;;;;;9.70;4.80;;;6.10;99.90;;;;;;4987131;28;20029;-75
2021/03/16 12:29:36;;;;;;;12.95;5.05;;;6.50;99.90;;;;;;4988860;28;20250;-76
2021/03/16 12:32:02;;;;;;;11.48;5.30;;;7.00;99.10;;;;;;4987198;28;20116;-73
2021/03/16 12:34:28;;;;;;;10.35;4.90;;;7.20;95.60;;;;;;4988804;28;20386;-74
2021/03/16 12:36:54;;;;;;;13.55;4.32;;;7.00;94.20;;;;;;4988488;28;20397;-74
2021/03/16 12:39:20;;;;;;;18.35;5.03;;;6.70;93.30;;;;;;4987677;28;20030;-73
2021/03/16 12:41:45;;;;;;;10.57;4.72;;;6.60;95.80;;;;;;4988487;28;20054;-74
2021/03/16 12:44:11;;;;;;;15.85;4.57;;;6.50;98.00;;;;;;4987028;28;20341;-74
2021/03/16 12:46:37;;;;;;;15.25;4.75;;;6.20;96.40;;;;;;5005706;28;20034;-74